sensor_id;sensor_type;location;lat;lon;timestamp;temperature;humidity
43581;DHT22;29175;51.030;4.606;2023-02-01T00:00:34;7.30;99.90
43581;DHT22;29175;51.030;4.606;2023-02-01T00:03:00;7.50;99.90
43581;DHT22;29175;51.030;4.606;2023-02-01T00:05:26;7.20;99.90
43581;DHT22;29175;51.030;4.606;2023-02-01T00:07:52;7.10;99.90
43581;DHT22;29175;51.030;4.606;2023-02-01T00:10:18;7.30;99.90
43581;DHT22;29175;51.030;4.606;2023-02-01T00:12:44;7.30;99.90
43581;DHT22;29175;51.030;4.606;2023-02-01T00:15:10;7.40;99.90
43581;DHT22;29175;51.030;4.606;2023-02-01T00:17:35;7.50;99.90
43581;DHT22;29175;51.030;4.606;2023-02-01T00:20:01;7.70;99.90
43581;DHT22;29175;51.030;4.606;2023-02-01T00:22:27;7.80;99.90
43581;DHT22;29175;51.030;4.606;2023-02-01T00:24:53;8.00;99.90
43581;DHT22;29175;51.030;4.606;2023-02-01T00:27:19;7.80;99.90
43581;DHT22;29175;51.030;4.606;2023-02-01T00:29:46;7.70;99.90
43581;DHT22;29175;51.030;4.606;2023-02-01T00:32:12;7.70;99.90
43581;DHT22;29175;51.030;4.606;2023-02-01T00:34:39;7.70;99.90
43581;DHT22;29175;51.030;4.606;2023-02-01T00:37:05;8.00;99.90
43581;DHT22;29175;51.030;4.606;2023-02-01T00:39:31;8.10;99.90
43581;DHT22;29175;51.030;4.606;2023-02-01T00:41:57;8.10;99.90
43581;DHT22;29175;51.030;4.606;2023-02-01T00:44:23;8.30;99.90
43581;DHT22;29175;51.030;4.606;2023-02-01T00:46:48;8.00;99.90
43581;DHT22;29175;51.030;4.606;2023-02-01T00:49:14;8.00;99.90
43581;DHT22;29175;51.030;4.606;2023-02-01T00:51:40;7.70;99.90
43581;DHT22;29175;51.030;4.606;2023-02-01T00:54:06;7.80;99.90
43581;DHT22;29175;51.030;4.606;2023-02-01T00:56:31;7.60;99.90
43581;DHT22;29175;51.030;4.606;2023-02-01T00:58:57;7.50;99.90
43581;DHT22;29175;51.030;4.606;2023-02-01T01:01:26;7.60;99.90
43581;DHT22;29175;51.030;4.606;2023-02-01T01:03:57;7.60;99.90
43581;DHT22;29175;51.030;4.606;2023-02-01T01:06:28;7.40;99.90
43581;DHT22;29175;51.030;4.606;2023-02-01T01:08:56;7.10;99.90
43581;DHT22;29175;51.030;4.606;2023-02-01T01:11:26;7.30;99.90
43581;DHT22;29175;51.030;4.606;2023-02-01T01:13:54;7.40;99.90
43581;DHT22;29175;51.030;4.606;2023-02-01T01:16:20;7.30;99.90
43581;DHT22;29175;51.030;4.606;2023-02-01T01:18:47;7.10;99.90
43581;DHT22;29175;51.030;4.606;2023-02-01T01:21:14;7.00;99.90
43581;DHT22;29175;51.030;4.606;2023-02-01T01:23:40;6.90;99.90
43581;DHT22;29175;51.030;4.606;2023-02-01T01:26:08;7.00;99.90
43581;DHT22;29175;51.030;4.606;2023-02-01T01:28:34;7.30;99.90
43581;DHT22;29175;51.030;4.606;2023-02-01T01:31:00;7.30;99.90
43581;DHT22;29175;51.030;4.606;2023-02-01T01:33:26;7.40;99.90
43581;DHT22;29175;51.030;4.606;2023-02-01T01:35:52;7.10;99.90
43581;DHT22;29175;51.030;4.606;2023-02-01T01:38:18;7.10;99.90
43581;DHT22;29175;51.030;4.606;2023-02-01T01:40:48;6.90;99.90
43581;DHT22;29175;51.030;4.606;2023-02-01T01:43:17;7.00;99.90
43581;DHT22;29175;51.030;4.606;2023-02-01T01:45:45;7.00;99.90
43581;DHT22;29175;51.030;4.606;2023-02-01T01:48:23;7.10;99.90
43581;DHT22;29175;51.030;4.606;2023-02-01T01:50:56;7.10;99.90
43581;DHT22;29175;51.030;4.606;2023-02-01T01:53:28;7.30;99.90
43581;DHT22;29175;51.030;4.606;2023-02-01T01:55:56;7.40;99.90
43581;DHT22;29175;51.030;4.606;2023-02-01T01:58:26;7.40;99.90
43581;DHT22;29175;51.030;4.606;2023-02-01T02:00:53;7.40;99.90
43581;DHT22;29175;51.030;4.606;2023-02-01T02:03:23;7.60;99.90
43581;DHT22;29175;51.030;4.606;2023-02-01T02:05:52;7.00;99.90
43581;DHT22;29175;51.030;4.606;2023-02-01T02:08:19;6.90;99.90
43581;DHT22;29175;51.030;4.606;2023-02-01T02:10:48;7.00;99.90
43581;DHT22;29175;51.030;4.606;2023-02-01T02:13:40;6.90;99.90
43581;DHT22;29175;51.030;4.606;2023-02-01T02:22:05;7.00;99.90
43581;DHT22;29175;51.030;4.606;2023-02-01T02:34:10;6.60;99.90
43581;DHT22;29175;51.030;4.606;2023-02-01T02:36:39;6.60;99.90
43581;DHT22;29175;51.030;4.606;2023-02-01T02:39:23;6.50;99.90
43581;DHT22;29175;51.030;4.606;2023-02-01T02:45:13;6.50;99.90
43581;DHT22;29175;51.030;4.606;2023-02-01T02:48:14;6.70;99.90
43581;DHT22;29175;51.030;4.606;2023-02-01T02:50:58;6.40;99.90
43581;DHT22;29175;51.030;4.606;2023-02-01T02:56:37;6.30;99.90
43581;DHT22;29175;51.030;4.606;2023-02-01T02:59:24;6.30;99.90
43581;DHT22;29175;51.030;4.606;2023-02-01T03:02:10;6.20;99.90
43581;DHT22;29175;51.030;4.606;2023-02-01T03:04:55;6.20;99.90
43581;DHT22;29175;51.030;4.606;2023-02-01T03:12:54;6.10;99.90
43581;DHT22;29175;51.030;4.606;2023-02-01T03:15:32;6.20;99.90
43581;DHT22;29175;51.030;4.606;2023-02-01T03:18:01;6.10;99.90
43581;DHT22;29175;51.030;4.606;2023-02-01T03:20:30;6.20;99.90
43581;DHT22;29175;51.030;4.606;2023-02-01T03:22:58;6.40;99.90
43581;DHT22;29175;51.030;4.606;2023-02-01T03:25:30;6.60;99.90
43581;DHT22;29175;51.030;4.606;2023-02-01T03:28:01;6.50;99.90
43581;DHT22;29175;51.030;4.606;2023-02-01T03:30:37;6.30;99.90
43581;DHT22;29175;51.030;4.606;2023-02-01T03:33:07;6.10;99.90
43581;DHT22;29175;51.030;4.606;2023-02-01T03:38:30;6.60;99.90
43581;DHT22;29175;51.030;4.606;2023-02-01T03:41:19;6.60;99.90
43581;DHT22;29175;51.030;4.606;2023-02-01T03:43:52;6.60;99.90
43581;DHT22;29175;51.030;4.606;2023-02-01T03:46:25;6.50;99.90
43581;DHT22;29175;51.030;4.606;2023-02-01T03:48:53;6.40;99.90
43581;DHT22;29175;51.030;4.606;2023-02-01T03:51:20;6.30;99.90
43581;DHT22;29175;51.030;4.606;2023-02-01T03:53:47;6.30;99.90
43581;DHT22;29175;51.030;4.606;2023-02-01T03:56:16;6.20;99.90
43581;DHT22;29175;51.030;4.606;2023-02-01T03:58:42;6.10;99.90
43581;DHT22;29175;51.030;4.606;2023-02-01T04:01:23;6.10;99.90
43581;DHT22;29175;51.030;4.606;2023-02-01T04:03:48;6.30;99.90
43581;DHT22;29175;51.030;4.606;2023-02-01T04:06:17;6.30;99.90
43581;DHT22;29175;51.030;4.606;2023-02-01T04:08:42;6.20;99.90
43581;DHT22;29175;51.030;4.606;2023-02-01T04:11:08;6.10;99.90
43581;DHT22;29175;51.030;4.606;2023-02-01T04:13:35;6.00;99.90
43581;DHT22;29175;51.030;4.606;2023-02-01T04:16:00;6.10;99.90
43581;DHT22;29175;51.030;4.606;2023-02-01T04:18:26;6.20;99.90
43581;DHT22;29175;51.030;4.606;2023-02-01T04:20:52;5.90;99.90
43581;DHT22;29175;51.030;4.606;2023-02-01T04:23:17;6.00;99.90
43581;DHT22;29175;51.030;4.606;2023-02-01T04:25:43;5.90;99.90
43581;DHT22;29175;51.030;4.606;2023-02-01T04:28:09;5.80;99.90
43581;DHT22;29175;51.030;4.606;2023-02-01T04:30:34;5.90;99.90
43581;DHT22;29175;51.030;4.606;2023-02-01T04:33:00;5.70;99.90
43581;DHT22;29175;51.030;4.606;2023-02-01T04:35:29;5.80;99.90
43581;DHT22;29175;51.030;4.606;2023-02-01T04:37:54;6.10;99.90
43581;DHT22;29175;51.030;4.606;2023-02-01T04:40:20;6.10;99.90
43581;DHT22;29175;51.030;4.606;2023-02-01T04:42:46;6.00;99.90
43581;DHT22;29175;51.030;4.606;2023-02-01T04:45:12;6.10;99.90
43581;DHT22;29175;51.030;4.606;2023-02-01T04:47:38;6.20;99.90
43581;DHT22;29175;51.030;4.606;2023-02-01T04:50:05;6.20;99.90
43581;DHT22;29175;51.030;4.606;2023-02-01T04:52:31;6.00;99.90
43581;DHT22;29175;51.030;4.606;2023-02-01T04:54:57;6.20;99.90
43581;DHT22;29175;51.030;4.606;2023-02-01T04:57:25;6.00;99.90
43581;DHT22;29175;51.030;4.606;2023-02-01T04:59:50;6.10;99.90
43581;DHT22;29175;51.030;4.606;2023-02-01T05:02:16;6.10;99.90
43581;DHT22;29175;51.030;4.606;2023-02-01T05:04:42;6.10;99.90
43581;DHT22;29175;51.030;4.606;2023-02-01T05:07:07;5.90;99.90
43581;DHT22;29175;51.030;4.606;2023-02-01T05:09:33;6.00;99.90
43581;DHT22;29175;51.030;4.606;2023-02-01T05:12:00;5.80;99.90
43581;DHT22;29175;51.030;4.606;2023-02-01T05:14:44;5.60;99.90
43581;DHT22;29175;51.030;4.606;2023-02-01T05:17:10;5.60;99.90
43581;DHT22;29175;51.030;4.606;2023-02-01T05:19:35;5.50;99.90
43581;DHT22;29175;51.030;4.606;2023-02-01T05:22:01;5.70;99.90
43581;DHT22;29175;51.030;4.606;2023-02-01T05:24:27;5.80;99.90
43581;DHT22;29175;51.030;4.606;2023-02-01T05:26:53;5.80;99.90
43581;DHT22;29175;51.030;4.606;2023-02-01T05:29:19;5.80;99.90
43581;DHT22;29175;51.030;4.606;2023-02-01T05:31:45;5.80;99.90
43581;DHT22;29175;51.030;4.606;2023-02-01T05:34:11;5.80;99.90
43581;DHT22;29175;51.030;4.606;2023-02-01T05:36:37;5.70;99.90
43581;DHT22;29175;51.030;4.606;2023-02-01T05:39:03;6.00;99.90
43581;DHT22;29175;51.030;4.606;2023-02-01T05:41:29;5.90;99.90
43581;DHT22;29175;51.030;4.606;2023-02-01T05:43:55;6.00;99.90
43581;DHT22;29175;51.030;4.606;2023-02-01T05:46:21;6.10;99.90
43581;DHT22;29175;51.030;4.606;2023-02-01T05:48:47;6.10;99.90
43581;DHT22;29175;51.030;4.606;2023-02-01T05:51:13;6.10;99.90
43581;DHT22;29175;51.030;4.606;2023-02-01T05:53:38;5.90;99.90
43581;DHT22;29175;51.030;4.606;2023-02-01T05:56:04;5.90;99.90
43581;DHT22;29175;51.030;4.606;2023-02-01T05:58:30;5.80;99.90
43581;DHT22;29175;51.030;4.606;2023-02-01T06:00:59;5.60;99.90
43581;DHT22;29175;51.030;4.606;2023-02-01T06:03:25;5.70;99.90
43581;DHT22;29175;51.030;4.606;2023-02-01T06:05:50;6.00;99.90
43581;DHT22;29175;51.030;4.606;2023-02-01T06:08:16;5.90;99.90
43581;DHT22;29175;51.030;4.606;2023-02-01T06:10:42;5.70;99.90
43581;DHT22;29175;51.030;4.606;2023-02-01T06:13:08;5.70;99.90
43581;DHT22;29175;51.030;4.606;2023-02-01T06:15:34;5.60;99.90
43581;DHT22;29175;51.030;4.606;2023-02-01T06:18:00;5.50;99.90
43581;DHT22;29175;51.030;4.606;2023-02-01T06:20:26;5.80;99.90
43581;DHT22;29175;51.030;4.606;2023-02-01T06:22:52;5.50;99.90
43581;DHT22;29175;51.030;4.606;2023-02-01T06:25:18;5.50;99.90
43581;DHT22;29175;51.030;4.606;2023-02-01T06:27:44;5.50;99.90
43581;DHT22;29175;51.030;4.606;2023-02-01T06:30:11;5.50;99.90
43581;DHT22;29175;51.030;4.606;2023-02-01T06:32:39;5.80;99.90
43581;DHT22;29175;51.030;4.606;2023-02-01T06:35:07;5.80;99.90
43581;DHT22;29175;51.030;4.606;2023-02-01T06:37:33;5.80;99.90
43581;DHT22;29175;51.030;4.606;2023-02-01T06:39:59;6.00;99.90
43581;DHT22;29175;51.030;4.606;2023-02-01T06:42:25;5.80;99.90
43581;DHT22;29175;51.030;4.606;2023-02-01T06:44:51;5.70;99.90
43581;DHT22;29175;51.030;4.606;2023-02-01T06:47:17;5.70;99.90
43581;DHT22;29175;51.030;4.606;2023-02-01T06:49:42;5.90;99.90
43581;DHT22;29175;51.030;4.606;2023-02-01T06:52:08;5.80;99.90
43581;DHT22;29175;51.030;4.606;2023-02-01T06:54:34;5.70;99.90
43581;DHT22;29175;51.030;4.606;2023-02-01T06:57:03;5.40;99.90
43581;DHT22;29175;51.030;4.606;2023-02-01T06:59:28;5.40;99.90
43581;DHT22;29175;51.030;4.606;2023-02-01T07:01:54;5.40;99.90
43581;DHT22;29175;51.030;4.606;2023-02-01T07:04:19;5.60;99.90
43581;DHT22;29175;51.030;4.606;2023-02-01T07:06:45;5.90;99.90
43581;DHT22;29175;51.030;4.606;2023-02-01T07:09:11;5.80;99.90
43581;DHT22;29175;51.030;4.606;2023-02-01T07:11:38;5.70;99.90
43581;DHT22;29175;51.030;4.606;2023-02-01T07:14:08;5.50;99.90
43581;DHT22;29175;51.030;4.606;2023-02-01T07:16:34;5.70;99.90
43581;DHT22;29175;51.030;4.606;2023-02-01T07:19:00;5.70;99.90
43581;DHT22;29175;51.030;4.606;2023-02-01T07:21:26;5.50;99.90
43581;DHT22;29175;51.030;4.606;2023-02-01T07:23:53;5.40;99.90
43581;DHT22;29175;51.030;4.606;2023-02-01T07:26:19;5.50;99.90
43581;DHT22;29175;51.030;4.606;2023-02-01T07:28:45;5.60;99.90
43581;DHT22;29175;51.030;4.606;2023-02-01T07:31:16;5.40;99.90
43581;DHT22;29175;51.030;4.606;2023-02-01T07:33:44;5.70;99.90
43581;DHT22;29175;51.030;4.606;2023-02-01T07:36:13;5.70;99.90
43581;DHT22;29175;51.030;4.606;2023-02-01T07:38:39;5.70;99.90
43581;DHT22;29175;51.030;4.606;2023-02-01T07:41:05;5.60;99.90
43581;DHT22;29175;51.030;4.606;2023-02-01T07:43:32;5.40;99.90
43581;DHT22;29175;51.030;4.606;2023-02-01T07:46:02;5.60;99.90
43581;DHT22;29175;51.030;4.606;2023-02-01T07:48:28;6.00;99.90
43581;DHT22;29175;51.030;4.606;2023-02-01T07:51:08;6.00;99.90
43581;DHT22;29175;51.030;4.606;2023-02-01T07:53:34;5.70;99.90
43581;DHT22;29175;51.030;4.606;2023-02-01T07:56:00;5.80;99.90
43581;DHT22;29175;51.030;4.606;2023-02-01T07:58:26;6.00;99.90
43581;DHT22;29175;51.030;4.606;2023-02-01T08:00:53;6.10;99.90
43581;DHT22;29175;51.030;4.606;2023-02-01T08:03:37;6.30;99.90
43581;DHT22;29175;51.030;4.606;2023-02-01T08:06:03;6.30;99.90
43581;DHT22;29175;51.030;4.606;2023-02-01T08:08:30;6.40;99.90
43581;DHT22;29175;51.030;4.606;2023-02-01T08:11:03;6.50;99.90
43581;DHT22;29175;51.030;4.606;2023-02-01T08:13:28;6.60;99.90
43581;DHT22;29175;51.030;4.606;2023-02-01T08:15:59;6.50;99.90
43581;DHT22;29175;51.030;4.606;2023-02-01T08:18:25;6.40;99.90
43581;DHT22;29175;51.030;4.606;2023-02-01T08:20:51;6.60;99.90
43581;DHT22;29175;51.030;4.606;2023-02-01T08:23:17;6.70;99.90
43581;DHT22;29175;51.030;4.606;2023-02-01T08:25:43;6.70;99.90
43581;DHT22;29175;51.030;4.606;2023-02-01T08:28:09;6.80;99.90
43581;DHT22;29175;51.030;4.606;2023-02-01T08:30:39;6.90;99.90
43581;DHT22;29175;51.030;4.606;2023-02-01T08:33:05;7.00;99.90
43581;DHT22;29175;51.030;4.606;2023-02-01T08:35:34;7.00;99.90
43581;DHT22;29175;51.030;4.606;2023-02-01T08:38:00;6.70;99.90
43581;DHT22;29175;51.030;4.606;2023-02-01T08:40:25;6.80;99.90
43581;DHT22;29175;51.030;4.606;2023-02-01T08:42:51;6.90;99.90
43581;DHT22;29175;51.030;4.606;2023-02-01T08:45:23;6.80;99.90
43581;DHT22;29175;51.030;4.606;2023-02-01T08:47:50;6.70;99.90
43581;DHT22;29175;51.030;4.606;2023-02-01T08:50:16;6.90;99.90
43581;DHT22;29175;51.030;4.606;2023-02-01T08:52:42;7.20;99.90
43581;DHT22;29175;51.030;4.606;2023-02-01T08:55:09;7.10;99.90
43581;DHT22;29175;51.030;4.606;2023-02-01T08:57:35;7.30;99.90
43581;DHT22;29175;51.030;4.606;2023-02-01T09:00:01;7.40;99.90
43581;DHT22;29175;51.030;4.606;2023-02-01T09:02:27;7.50;99.90
43581;DHT22;29175;51.030;4.606;2023-02-01T09:04:52;7.20;99.90
43581;DHT22;29175;51.030;4.606;2023-02-01T09:07:18;7.50;99.90
43581;DHT22;29175;51.030;4.606;2023-02-01T09:09:45;7.50;99.90
43581;DHT22;29175;51.030;4.606;2023-02-01T09:12:10;7.70;99.90
43581;DHT22;29175;51.030;4.606;2023-02-01T09:14:36;7.80;99.90
43581;DHT22;29175;51.030;4.606;2023-02-01T09:17:03;8.00;99.90
43581;DHT22;29175;51.030;4.606;2023-02-01T09:19:28;8.20;99.90
43581;DHT22;29175;51.030;4.606;2023-02-01T09:21:54;8.00;99.90
43581;DHT22;29175;51.030;4.606;2023-02-01T09:24:20;8.20;99.90
43581;DHT22;29175;51.030;4.606;2023-02-01T09:26:45;8.30;99.90
43581;DHT22;29175;51.030;4.606;2023-02-01T09:29:11;8.40;99.90
43581;DHT22;29175;51.030;4.606;2023-02-01T09:31:38;8.10;99.90
43581;DHT22;29175;51.030;4.606;2023-02-01T09:34:04;8.20;99.90
43581;DHT22;29175;51.030;4.606;2023-02-01T09:36:30;8.30;99.90
43581;DHT22;29175;51.030;4.606;2023-02-01T09:38:56;8.30;99.90
43581;DHT22;29175;51.030;4.606;2023-02-01T09:44:48;8.30;99.90
43581;DHT22;29175;51.030;4.606;2023-02-01T09:47:22;8.20;99.90
43581;DHT22;29175;51.030;4.606;2023-02-01T09:52:55;8.40;99.90
43581;DHT22;29175;51.030;4.606;2023-02-01T09:55:36;8.70;99.90
43581;DHT22;29175;51.030;4.606;2023-02-01T09:58:19;8.80;99.90
43581;DHT22;29175;51.030;4.606;2023-02-01T10:00:55;8.90;99.90
43581;DHT22;29175;51.030;4.606;2023-02-01T10:03:26;9.00;99.90
43581;DHT22;29175;51.030;4.606;2023-02-01T10:12:43;9.20;99.90
43581;DHT22;29175;51.030;4.606;2023-02-01T10:17:46;9.30;99.90
43581;DHT22;29175;51.030;4.606;2023-02-01T10:23:10;9.60;99.90
43581;DHT22;29175;51.030;4.606;2023-02-01T10:25:56;9.50;99.90
43581;DHT22;29175;51.030;4.606;2023-02-01T10:28:32;9.90;99.90
43581;DHT22;29175;51.030;4.606;2023-02-01T10:30:59;10.50;99.90
43581;DHT22;29175;51.030;4.606;2023-02-01T10:33:50;10.70;99.90
43581;DHT22;29175;51.030;4.606;2023-02-01T10:36:19;11.60;99.90
43581;DHT22;29175;51.030;4.606;2023-02-01T10:38:46;12.30;99.90
43581;DHT22;29175;51.030;4.606;2023-02-01T10:41:16;12.50;99.90
43581;DHT22;29175;51.030;4.606;2023-02-01T10:43:43;12.50;99.90
43581;DHT22;29175;51.030;4.606;2023-02-01T10:46:10;12.80;99.90
43581;DHT22;29175;51.030;4.606;2023-02-01T10:48:37;12.90;99.90
43581;DHT22;29175;51.030;4.606;2023-02-01T10:51:07;12.40;99.90
43581;DHT22;29175;51.030;4.606;2023-02-01T10:56:13;13.10;99.90
43581;DHT22;29175;51.030;4.606;2023-02-01T10:58:46;13.20;99.90
43581;DHT22;29175;51.030;4.606;2023-02-01T11:01:21;13.20;99.90
43581;DHT22;29175;51.030;4.606;2023-02-01T11:06:26;12.50;99.90
43581;DHT22;29175;51.030;4.606;2023-02-01T11:08:58;12.20;99.90
43581;DHT22;29175;51.030;4.606;2023-02-01T11:11:25;12.50;99.90
43581;DHT22;29175;51.030;4.606;2023-02-01T11:13:57;12.30;99.90
43581;DHT22;29175;51.030;4.606;2023-02-01T11:16:36;12.00;99.90
43581;DHT22;29175;51.030;4.606;2023-02-01T11:19:03;11.90;99.90
43581;DHT22;29175;51.030;4.606;2023-02-01T11:21:29;11.90;99.90
43581;DHT22;29175;51.030;4.606;2023-02-01T11:23:55;11.70;99.90
43581;DHT22;29175;51.030;4.606;2023-02-01T11:26:26;11.60;99.90
43581;DHT22;29175;51.030;4.606;2023-02-01T11:29:14;11.80;99.90
43581;DHT22;29175;51.030;4.606;2023-02-01T11:31:42;11.60;99.90
43581;DHT22;29175;51.030;4.606;2023-02-01T11:34:16;11.70;99.90
43581;DHT22;29175;51.030;4.606;2023-02-01T11:36:45;11.80;99.90
43581;DHT22;29175;51.030;4.606;2023-02-01T11:44:37;11.10;99.90
43581;DHT22;29175;51.030;4.606;2023-02-01T11:47:39;11.20;99.90
43581;DHT22;29175;51.030;4.606;2023-02-01T11:50:17;11.00;99.90
43581;DHT22;29175;51.030;4.606;2023-02-01T11:56:00;10.90;99.90
43581;DHT22;29175;51.030;4.606;2023-02-01T12:07:40;11.20;99.90
43581;DHT22;29175;51.030;4.606;2023-02-01T12:10:13;10.90;99.90
43581;DHT22;29175;51.030;4.606;2023-02-01T12:12:56;10.60;99.90
43581;DHT22;29175;51.030;4.606;2023-02-01T12:15:51;10.70;99.90
43581;DHT22;29175;51.030;4.606;2023-02-01T12:21:27;10.70;99.90
43581;DHT22;29175;51.030;4.606;2023-02-01T12:32:08;10.50;99.90
43581;DHT22;29175;51.030;4.606;2023-02-01T12:42:59;10.20;99.90
43581;DHT22;29175;51.030;4.606;2023-02-01T12:45:37;10.40;99.90
43581;DHT22;29175;51.030;4.606;2023-02-01T12:48:35;10.30;99.90
43581;DHT22;29175;51.030;4.606;2023-02-01T12:51:14;10.30;99.90
43581;DHT22;29175;51.030;4.606;2023-02-01T12:53:44;10.40;99.90
43581;DHT22;29175;51.030;4.606;2023-02-01T12:56:35;10.40;99.90
43581;DHT22;29175;51.030;4.606;2023-02-01T12:59:04;10.40;99.90
43581;DHT22;29175;51.030;4.606;2023-02-01T13:01:41;10.30;99.90
43581;DHT22;29175;51.030;4.606;2023-02-01T13:04:32;10.20;99.90
43581;DHT22;29175;51.030;4.606;2023-02-01T13:12:04;10.00;99.90
43581;DHT22;29175;51.030;4.606;2023-02-01T13:14:55;10.10;99.90
43581;DHT22;29175;51.030;4.606;2023-02-01T13:17:30;10.20;99.90
43581;DHT22;29175;51.030;4.606;2023-02-01T13:22:39;10.40;99.90
43581;DHT22;29175;51.030;4.606;2023-02-01T13:25:35;10.50;99.90
43581;DHT22;29175;51.030;4.606;2023-02-01T13:44:40;10.60;99.90
43581;DHT22;29175;51.030;4.606;2023-02-01T13:47:25;10.60;99.90
43581;DHT22;29175;51.030;4.606;2023-02-01T13:49:53;10.70;99.90
43581;DHT22;29175;51.030;4.606;2023-02-01T13:52:27;10.60;99.90
43581;DHT22;29175;51.030;4.606;2023-02-01T13:57:47;10.60;99.90
43581;DHT22;29175;51.030;4.606;2023-02-01T14:00:37;10.60;99.90
43581;DHT22;29175;51.030;4.606;2023-02-01T14:03:13;10.60;99.90
43581;DHT22;29175;51.030;4.606;2023-02-01T14:08:12;10.70;99.90
43581;DHT22;29175;51.030;4.606;2023-02-01T14:21:19;10.60;99.90
43581;DHT22;29175;51.030;4.606;2023-02-01T14:29:25;10.60;99.90
43581;DHT22;29175;51.030;4.606;2023-02-01T14:34:51;10.30;99.90
43581;DHT22;29175;51.030;4.606;2023-02-01T14:42:18;10.30;99.90
43581;DHT22;29175;51.030;4.606;2023-02-01T14:44:47;10.00;99.90
43581;DHT22;29175;51.030;4.606;2023-02-01T14:47:27;10.30;99.90
43581;DHT22;29175;51.030;4.606;2023-02-01T14:52:46;10.10;99.90
43581;DHT22;29175;51.030;4.606;2023-02-01T14:55:15;10.10;99.90
43581;DHT22;29175;51.030;4.606;2023-02-01T14:57:41;10.00;99.90
43581;DHT22;29175;51.030;4.606;2023-02-01T15:00:25;10.20;99.90
43581;DHT22;29175;51.030;4.606;2023-02-01T15:02:52;10.20;99.90
43581;DHT22;29175;51.030;4.606;2023-02-01T15:05:32;10.00;99.90
43581;DHT22;29175;51.030;4.606;2023-02-01T15:08:15;10.00;99.90
43581;DHT22;29175;51.030;4.606;2023-02-01T15:10:44;10.00;99.90
43581;DHT22;29175;51.030;4.606;2023-02-01T15:13:25;10.10;99.90
43581;DHT22;29175;51.030;4.606;2023-02-01T15:16:05;10.20;99.90
43581;DHT22;29175;51.030;4.606;2023-02-01T15:18:32;10.10;99.90
43581;DHT22;29175;51.030;4.606;2023-02-01T15:21:00;9.90;99.90
43581;DHT22;29175;51.030;4.606;2023-02-01T15:23:26;10.00;99.90
43581;DHT22;29175;51.030;4.606;2023-02-01T15:25:53;10.10;99.90
43581;DHT22;29175;51.030;4.606;2023-02-01T15:28:19;9.90;99.90
43581;DHT22;29175;51.030;4.606;2023-02-01T15:31:03;10.00;99.90
43581;DHT22;29175;51.030;4.606;2023-02-01T15:33:30;10.10;99.90
43581;DHT22;29175;51.030;4.606;2023-02-01T15:38:42;10.00;99.90
43581;DHT22;29175;51.030;4.606;2023-02-01T15:46:52;9.80;99.90
43581;DHT22;29175;51.030;4.606;2023-02-01T15:49:30;9.80;99.90
43581;DHT22;29175;51.030;4.606;2023-02-01T15:51:58;9.70;99.90
43581;DHT22;29175;51.030;4.606;2023-02-01T15:54:31;9.80;99.90
43581;DHT22;29175;51.030;4.606;2023-02-01T15:57:00;9.90;99.90
43581;DHT22;29175;51.030;4.606;2023-02-01T15:59:35;9.70;99.90
43581;DHT22;29175;51.030;4.606;2023-02-01T16:02:02;9.80;99.90
43581;DHT22;29175;51.030;4.606;2023-02-01T16:04:29;9.80;99.90
43581;DHT22;29175;51.030;4.606;2023-02-01T16:06:57;9.80;99.90
43581;DHT22;29175;51.030;4.606;2023-02-01T16:09:38;9.60;99.90
43581;DHT22;29175;51.030;4.606;2023-02-01T16:12:32;9.60;99.90
43581;DHT22;29175;51.030;4.606;2023-02-01T16:15:04;9.70;99.90
43581;DHT22;29175;51.030;4.606;2023-02-01T16:17:30;9.80;99.90
43581;DHT22;29175;51.030;4.606;2023-02-01T16:19:55;9.70;99.90
43581;DHT22;29175;51.030;4.606;2023-02-01T16:22:22;9.70;99.90
43581;DHT22;29175;51.030;4.606;2023-02-01T16:24:48;9.60;99.90
43581;DHT22;29175;51.030;4.606;2023-02-01T16:27:14;9.80;99.90
43581;DHT22;29175;51.030;4.606;2023-02-01T16:29:40;9.70;99.90
43581;DHT22;29175;51.030;4.606;2023-02-01T16:32:05;9.70;99.90
43581;DHT22;29175;51.030;4.606;2023-02-01T16:34:31;9.40;99.90
43581;DHT22;29175;51.030;4.606;2023-02-01T16:36:58;9.30;99.90
43581;DHT22;29175;51.030;4.606;2023-02-01T16:39:24;9.50;99.90
43581;DHT22;29175;51.030;4.606;2023-02-01T16:41:50;9.70;99.90
43581;DHT22;29175;51.030;4.606;2023-02-01T16:44:16;9.90;99.90
43581;DHT22;29175;51.030;4.606;2023-02-01T16:46:44;9.90;99.90
43581;DHT22;29175;51.030;4.606;2023-02-01T16:49:24;9.90;99.90
43581;DHT22;29175;51.030;4.606;2023-02-01T16:51:51;9.90;99.90
43581;DHT22;29175;51.030;4.606;2023-02-01T16:54:20;9.80;99.90
43581;DHT22;29175;51.030;4.606;2023-02-01T16:56:46;9.90;99.90
43581;DHT22;29175;51.030;4.606;2023-02-01T16:59:12;9.80;99.90
43581;DHT22;29175;51.030;4.606;2023-02-01T17:01:40;9.60;99.90
43581;DHT22;29175;51.030;4.606;2023-02-01T17:04:08;9.60;99.90
43581;DHT22;29175;51.030;4.606;2023-02-01T17:06:35;9.60;99.90
43581;DHT22;29175;51.030;4.606;2023-02-01T17:09:02;9.70;99.90
43581;DHT22;29175;51.030;4.606;2023-02-01T17:11:29;9.60;99.90
43581;DHT22;29175;51.030;4.606;2023-02-01T17:14:09;9.40;99.90
43581;DHT22;29175;51.030;4.606;2023-02-01T17:16:39;9.50;99.90
43581;DHT22;29175;51.030;4.606;2023-02-01T17:19:13;9.60;99.90
43581;DHT22;29175;51.030;4.606;2023-02-01T17:21:51;9.80;99.90
43581;DHT22;29175;51.030;4.606;2023-02-01T17:24:21;9.70;99.90
43581;DHT22;29175;51.030;4.606;2023-02-01T17:26:46;9.80;99.90
43581;DHT22;29175;51.030;4.606;2023-02-01T17:29:14;9.40;99.90
43581;DHT22;29175;51.030;4.606;2023-02-01T17:31:45;9.40;99.90
43581;DHT22;29175;51.030;4.606;2023-02-01T17:34:12;9.60;99.90
43581;DHT22;29175;51.030;4.606;2023-02-01T17:36:40;9.70;99.90
43581;DHT22;29175;51.030;4.606;2023-02-01T17:39:08;9.80;99.90
43581;DHT22;29175;51.030;4.606;2023-02-01T17:41:35;9.80;99.90
43581;DHT22;29175;51.030;4.606;2023-02-01T17:44:02;9.80;99.90
43581;DHT22;29175;51.030;4.606;2023-02-01T17:46:28;9.60;99.90
43581;DHT22;29175;51.030;4.606;2023-02-01T17:48:55;9.70;99.90
43581;DHT22;29175;51.030;4.606;2023-02-01T17:51:25;9.60;99.90
43581;DHT22;29175;51.030;4.606;2023-02-01T17:53:52;9.60;99.90
43581;DHT22;29175;51.030;4.606;2023-02-01T17:56:20;9.70;99.90
43581;DHT22;29175;51.030;4.606;2023-02-01T17:58:47;9.50;99.90
43581;DHT22;29175;51.030;4.606;2023-02-01T18:01:17;9.50;99.90
43581;DHT22;29175;51.030;4.606;2023-02-01T18:03:44;9.40;99.90
43581;DHT22;29175;51.030;4.606;2023-02-01T18:06:15;9.30;99.90
43581;DHT22;29175;51.030;4.606;2023-02-01T18:08:41;9.40;99.90
43581;DHT22;29175;51.030;4.606;2023-02-01T18:11:13;9.50;99.90
43581;DHT22;29175;51.030;4.606;2023-02-01T18:13:39;9.60;99.90
43581;DHT22;29175;51.030;4.606;2023-02-01T18:16:05;9.60;99.90
43581;DHT22;29175;51.030;4.606;2023-02-01T18:18:31;9.70;99.90
43581;DHT22;29175;51.030;4.606;2023-02-01T18:20:58;9.80;99.90
43581;DHT22;29175;51.030;4.606;2023-02-01T18:23:24;9.50;99.90
43581;DHT22;29175;51.030;4.606;2023-02-01T18:25:51;9.50;99.90
43581;DHT22;29175;51.030;4.606;2023-02-01T18:28:17;9.20;99.90
43581;DHT22;29175;51.030;4.606;2023-02-01T18:30:46;9.30;99.90
43581;DHT22;29175;51.030;4.606;2023-02-01T18:33:15;9.40;99.90